createdAt,value
2022-11-15T00:00:02.163Z,65.90
2022-11-15T00:01:03.232Z,68.20
2022-11-15T00:02:02.163Z,76.70
2022-11-15T00:03:02.171Z,61.30
2022-11-15T00:04:02.102Z,72.40
2022-11-15T00:05:02.180Z,68.80
2022-11-15T00:06:02.082Z,71.60
2022-11-15T00:07:02.196Z,60.60
2022-11-15T00:08:02.079Z,68.10
2022-11-15T00:09:02.105Z,71.20
2022-11-15T00:10:02.023Z,73.20
2022-11-15T00:11:02.123Z,72.80
2022-11-15T00:12:01.995Z,70.60
2022-11-15T00:13:02.092Z,67.60
2022-11-15T00:14:01.974Z,73.00
2022-11-15T00:15:02.050Z,71.10
2022-11-15T00:16:01.949Z,73.80
2022-11-15T00:17:01.967Z,66.60
2022-11-15T00:18:01.925Z,64.70
2022-11-15T00:19:02.033Z,69.50
2022-11-15T00:20:01.894Z,74.80
2022-11-15T00:21:01.991Z,73.90
2022-11-15T00:22:01.864Z,69.80
2022-11-15T00:23:01.915Z,70.50
2022-11-15T00:24:01.844Z,75.60
2022-11-15T00:25:01.973Z,71.10
2022-11-15T00:26:01.822Z,69.10
2022-11-15T00:27:01.831Z,67.70
2022-11-15T00:28:01.791Z,71.10
2022-11-15T00:29:01.845Z,81.30
2022-11-15T00:30:01.763Z,71.80
2022-11-15T00:31:03.877Z,69.20
2022-11-15T00:32:01.731Z,69.70
2022-11-15T00:33:01.771Z,74.60
2022-11-15T00:34:01.710Z,70.60
2022-11-15T00:35:01.784Z,73.20
2022-11-15T00:36:01.691Z,70.60
2022-11-15T00:37:01.762Z,75.00
2022-11-15T00:38:01.664Z,68.10
2022-11-15T00:39:01.717Z,71.30
2022-11-15T00:40:01.631Z,70.30
2022-11-15T00:41:05.017Z,66.60
2022-11-15T00:42:02.628Z,69.70
2022-11-15T00:43:01.640Z,67.50
2022-11-15T00:44:01.577Z,60.30
2022-11-15T00:45:01.661Z,64.80
2022-11-15T00:46:01.555Z,65.60
2022-11-15T00:47:01.560Z,67.40
2022-11-15T00:48:01.551Z,65.10
2022-11-15T00:49:01.580Z,69.30
2022-11-15T00:50:01.505Z,63.20
2022-11-15T00:51:01.590Z,62.70
2022-11-15T00:52:01.471Z,68.40
2022-11-15T00:53:01.512Z,61.50
2022-11-15T00:54:01.479Z,68.60
2022-11-15T00:55:01.519Z,64.60
2022-11-15T00:56:01.434Z,71.40
2022-11-15T00:57:01.431Z,66.30
2022-11-15T00:58:01.391Z,64.70
2022-11-15T00:59:01.452Z,63.20
2022-11-15T01:00:01.399Z,68.60
2022-11-15T01:01:01.532Z,59.10
2022-11-15T01:02:01.341Z,64.70
2022-11-15T01:03:02.405Z,62.90
2022-11-15T01:04:01.819Z,63.40
2022-11-15T01:05:01.382Z,67.20
2022-11-15T01:06:01.324Z,64.20
2022-11-15T01:07:01.330Z,64.40
2022-11-15T01:08:01.259Z,68.60
2022-11-15T01:09:01.309Z,68.30
2022-11-15T01:10:01.231Z,67.20
2022-11-15T01:11:01.329Z,69.80
2022-11-15T01:12:01.231Z,69.40
2022-11-15T01:13:01.238Z,66.20
2022-11-15T01:14:01.181Z,63.70
2022-11-15T01:15:01.255Z,67.20
2022-11-15T01:16:01.154Z,69.70
2022-11-15T01:17:02.191Z,65.50
2022-11-15T01:18:01.139Z,61.40
2022-11-15T01:19:01.179Z,76.80
2022-11-15T01:20:01.097Z,65.00
2022-11-15T01:21:01.197Z,61.00
2022-11-15T01:22:01.070Z,61.90
2022-11-15T01:23:01.113Z,59.90
2022-11-15T01:24:01.078Z,62.40
2022-11-15T01:25:01.119Z,60.80
2022-11-15T01:26:01.020Z,63.80
2022-11-15T01:27:03.137Z,68.60
2022-11-15T01:28:01.007Z,61.30
2022-11-15T01:29:01.046Z,60.50
2022-11-15T01:30:01.007Z,65.30
2022-11-15T01:31:01.072Z,63.60
2022-11-15T01:32:00.942Z,59.50
2022-11-15T01:33:00.975Z,63.30
2022-11-15T01:34:00.916Z,64.40
2022-11-15T01:35:01.003Z,58.40
2022-11-15T01:36:00.918Z,61.20
2022-11-15T01:37:00.905Z,63.80
2022-11-15T01:38:00.859Z,60.50
2022-11-15T01:39:00.918Z,58.00
2022-11-15T01:40:01.119Z,57.00
2022-11-15T01:41:01.857Z,62.30
2022-11-15T01:42:00.837Z,64.20
2022-11-15T01:43:00.846Z,66.60
2022-11-15T01:44:00.779Z,60.00
2022-11-15T01:45:00.856Z,61.60
2022-11-15T01:46:00.758Z,70.00
2022-11-15T01:47:00.767Z,62.90
2022-11-15T01:48:00.774Z,65.70
2022-11-15T01:49:00.788Z,63.60
2022-11-15T01:50:00.706Z,62.70
2022-11-15T01:51:00.796Z,57.20
2022-11-15T01:52:00.676Z,60.40
2022-11-15T01:53:00.708Z,58.80
2022-11-15T01:54:00.686Z,61.80
2022-11-15T01:55:00.726Z,55.60
2022-11-15T01:56:00.627Z,63.20
2022-11-15T01:57:00.638Z,57.70
2022-11-15T01:58:00.600Z,59.90
2022-11-15T01:59:00.647Z,61.60
2022-11-15T02:00:00.607Z,63.80
2022-11-15T02:01:00.849Z,61.60
2022-11-15T02:02:00.545Z,62.00
2022-11-15T02:03:01.608Z,59.30
2022-11-15T02:04:00.520Z,54.50
2022-11-15T02:05:21.663Z,52.20
2022-11-15T02:06:00.495Z,58.00
2022-11-15T02:07:00.607Z,58.80
2022-11-15T02:08:00.467Z,57.10
2022-11-15T02:09:00.600Z,61.30
2022-11-15T02:10:00.442Z,59.30
2022-11-15T02:11:03.868Z,55.90
2022-11-15T02:12:00.414Z,51.90
2022-11-15T02:13:00.466Z,57.80
2022-11-15T02:14:00.384Z,54.10
2022-11-15T02:15:00.496Z,50.30
2022-11-15T02:16:03.039Z,59.00
2022-11-15T02:17:00.484Z,48.70
2022-11-15T02:18:00.335Z,58.30
2022-11-15T02:19:00.471Z,52.30
2022-11-15T02:20:00.307Z,53.60
2022-11-15T02:21:00.506Z,54.60
2022-11-15T02:22:00.282Z,50.10
2022-11-15T02:23:00.395Z,47.20
2022-11-15T02:24:00.261Z,64.90
2022-11-15T02:25:01.404Z,55.40
2022-11-15T02:26:00.228Z,51.40
2022-11-15T02:27:00.307Z,55.40
2022-11-15T02:28:00.203Z,52.60
2022-11-15T02:29:01.345Z,50.60
2022-11-15T02:30:00.185Z,53.80
2022-11-15T02:31:01.195Z,52.10
2022-11-15T02:32:00.144Z,59.60
2022-11-15T02:33:00.225Z,60.40
2022-11-15T02:34:00.123Z,47.80
2022-11-15T02:35:00.312Z,54.70
2022-11-15T02:36:00.093Z,48.60
2022-11-15T02:37:00.185Z,56.00
2022-11-15T02:38:00.074Z,50.70
2022-11-15T02:39:00.224Z,49.40
2022-11-15T02:40:00.055Z,55.90
2022-11-15T02:41:00.113Z,52.00
2022-11-15T02:42:00.015Z,54.30
2022-11-15T02:43:04.387Z,53.10
2022-11-15T02:44:00.994Z,45.90
2022-11-15T02:45:00.133Z,50.10
2022-11-15T02:45:59.965Z,49.70
2022-11-15T02:47:01.145Z,63.10
2022-11-15T02:47:59.945Z,54.00
2022-11-15T02:49:01.022Z,57.30
2022-11-15T02:49:59.906Z,52.30
2022-11-15T02:51:00.033Z,48.50
2022-11-15T02:51:59.893Z,54.20
2022-11-15T02:53:03.217Z,57.00
2022-11-15T02:53:59.863Z,46.10
2022-11-15T02:55:00.001Z,47.60
2022-11-15T02:55:59.833Z,60.20
2022-11-15T02:56:59.944Z,49.00
2022-11-15T02:57:59.811Z,44.60
2022-11-15T02:58:59.921Z,53.20
2022-11-15T02:59:59.782Z,47.60
2022-11-15T03:00:59.952Z,53.80
2022-11-15T03:01:59.752Z,54.80
2022-11-15T03:03:00.870Z,53.80
2022-11-15T03:03:59.730Z,49.00
2022-11-15T03:04:59.940Z,54.50
2022-11-15T03:05:59.711Z,60.70
2022-11-15T03:06:59.862Z,51.70
2022-11-15T03:08:02.543Z,51.20
2022-11-15T03:08:59.754Z,53.80
2022-11-15T03:09:59.644Z,54.00
2022-11-15T03:10:59.740Z,53.20
2022-11-15T03:11:59.628Z,66.50
2022-11-15T03:12:59.720Z,61.10
2022-11-15T03:13:59.603Z,58.20
2022-11-15T03:14:59.768Z,67.00
2022-11-15T03:15:59.573Z,57.20
2022-11-15T03:16:59.651Z,74.10
2022-11-15T03:17:59.551Z,58.00
2022-11-15T03:18:59.631Z,53.90
2022-11-15T03:19:59.510Z,59.40
2022-11-15T03:20:59.669Z,69.30
2022-11-15T03:21:59.491Z,59.50
2022-11-15T03:22:59.651Z,70.00
2022-11-15T03:23:59.470Z,61.30
2022-11-15T03:25:20.618Z,67.10
2022-11-15T03:25:59.435Z,63.30
2022-11-15T03:26:59.468Z,71.70
2022-11-15T03:27:59.413Z,70.20
2022-11-15T03:29:02.740Z,66.10
2022-11-15T03:29:59.389Z,70.80
2022-11-15T03:31:00.399Z,67.10
2022-11-15T03:31:59.358Z,67.90
2022-11-15T03:32:59.484Z,75.90
2022-11-15T03:33:59.330Z,63.90
2022-11-15T03:35:02.738Z,85.20
2022-11-15T03:35:59.336Z,73.90
2022-11-15T03:36:59.341Z,70.30
2022-11-15T03:37:59.349Z,63.80
2022-11-15T03:38:59.395Z,70.30
2022-11-15T03:39:59.289Z,59.50
2022-11-15T03:42:08.596Z,73.60
2022-11-15T03:43:08.487Z,71.50
2022-11-15T03:44:08.639Z,69.50
2022-11-15T03:45:08.490Z,63.40
2022-11-15T03:46:08.568Z,69.10
2022-11-15T03:47:08.438Z,64.50
2022-11-15T03:49:18.502Z,61.80
2022-11-15T03:50:17.391Z,65.30
2022-11-15T03:51:17.511Z,67.30
2022-11-15T03:52:17.341Z,60.90
2022-11-15T03:53:17.442Z,72.20
2022-11-15T03:54:17.311Z,60.70
2022-11-15T03:55:17.375Z,67.30
2022-11-15T03:56:17.305Z,61.60
2022-11-15T03:57:17.412Z,70.10
2022-11-15T03:58:17.257Z,66.90
2022-11-15T03:59:19.449Z,58.30
2022-11-15T04:00:17.238Z,59.60
2022-11-15T04:01:17.494Z,56.60
2022-11-15T04:02:17.241Z,58.60
2022-11-15T04:03:38.300Z,59.70
2022-11-15T04:04:17.240Z,65.20
2022-11-15T04:06:28.729Z,52.70
2022-11-15T04:07:26.636Z,65.10
2022-11-15T04:08:27.714Z,74.10
2022-11-15T04:09:26.497Z,73.60
2022-11-15T04:10:47.687Z,69.30
2022-11-15T04:11:26.476Z,71.00
2022-11-15T04:12:27.565Z,72.00
2022-11-15T04:13:26.473Z,58.40
2022-11-15T04:14:27.595Z,76.00
2022-11-15T04:15:26.426Z,103.90
2022-11-15T04:17:37.327Z,71.60
2022-11-15T04:18:37.246Z,72.10
2022-11-15T04:19:37.360Z,71.50
2022-11-15T04:20:37.197Z,62.60
2022-11-15T04:21:37.298Z,67.10
2022-11-15T04:22:37.177Z,74.20
2022-11-15T04:23:37.329Z,67.00
2022-11-15T04:24:37.167Z,61.50
2022-11-15T04:25:37.269Z,68.60
2022-11-15T04:26:37.120Z,67.10
2022-11-15T04:27:37.197Z,72.50
2022-11-15T04:28:37.091Z,70.80
2022-11-15T04:29:37.239Z,69.70
2022-11-15T04:30:37.098Z,56.10
2022-11-15T04:31:38.218Z,61.70
2022-11-15T04:32:37.045Z,71.00
2022-11-15T04:33:37.107Z,68.30
2022-11-15T04:34:37.007Z,85.80
2022-11-15T04:35:37.166Z,68.40
2022-11-15T04:36:37.019Z,74.50
2022-11-15T04:37:37.076Z,65.90
2022-11-15T04:38:36.961Z,70.70
2022-11-15T04:40:00.085Z,73.90
2022-11-15T04:40:36.937Z,67.10
2022-11-15T04:41:38.075Z,72.90
2022-11-15T04:42:36.936Z,70.80
2022-11-15T04:43:37.004Z,74.40
2022-11-15T04:44:36.876Z,64.70
2022-11-15T04:45:37.034Z,67.30
2022-11-15T04:46:36.847Z,70.70
2022-11-15T04:47:36.958Z,68.30
2022-11-15T04:48:36.867Z,63.00
2022-11-15T04:49:36.999Z,68.60
2022-11-15T04:50:36.797Z,64.60
2022-11-15T04:51:39.028Z,69.70
2022-11-15T04:52:36.776Z,71.20
2022-11-15T04:53:36.864Z,80.40
2022-11-15T04:54:36.777Z,65.00
2022-11-15T04:55:37.817Z,72.80
2022-11-15T04:56:36.716Z,69.80
2022-11-15T04:57:36.827Z,74.90
2022-11-15T04:58:36.705Z,79.60
2022-11-15T04:59:37.893Z,70.60
2022-11-15T05:00:36.705Z,63.60
2022-11-15T05:01:39.649Z,71.40
2022-11-15T05:02:37.642Z,81.40
2022-11-15T05:03:36.736Z,71.50
2022-11-15T05:04:36.615Z,75.70
2022-11-15T05:05:36.774Z,72.30
2022-11-15T05:06:36.605Z,70.30
2022-11-15T05:07:36.754Z,85.10
2022-11-15T05:08:36.564Z,68.70
2022-11-15T05:09:36.749Z,68.40
2022-11-15T05:10:36.535Z,67.60
2022-11-15T05:11:59.653Z,82.60
2022-11-15T05:12:36.513Z,74.80
2022-11-15T05:13:36.493Z,71.20
2022-11-15T05:14:57.664Z,71.70
2022-11-15T05:15:36.474Z,75.00
2022-11-15T05:16:37.532Z,70.40
2022-11-15T05:17:36.475Z,77.20
2022-11-15T05:18:36.554Z,70.40
2022-11-15T05:19:36.415Z,79.70
2022-11-15T05:20:37.519Z,87.40
2022-11-15T05:21:36.393Z,70.20
2022-11-15T05:22:36.521Z,69.40
2022-11-15T05:23:36.391Z,68.90
2022-11-15T05:24:36.456Z,71.60
2022-11-15T05:25:36.345Z,75.80
2022-11-15T05:26:36.383Z,86.30
2022-11-15T05:27:36.312Z,67.60
2022-11-15T05:28:37.569Z,73.00
2022-11-15T05:29:36.301Z,70.60
2022-11-15T05:30:36.462Z,86.70
2022-11-15T05:31:36.259Z,78.90
2022-11-15T05:32:36.404Z,70.20
2022-11-15T05:33:36.240Z,71.10
2022-11-15T05:34:38.324Z,80.20
2022-11-15T05:35:36.231Z,81.60
2022-11-15T05:36:36.223Z,66.00
2022-11-15T05:37:36.191Z,69.20
2022-11-15T05:38:36.240Z,74.50
2022-11-15T05:39:36.160Z,71.20
2022-11-15T05:40:36.252Z,72.50
2022-11-15T05:41:36.162Z,64.30
2022-11-15T05:42:36.166Z,78.00
2022-11-15T05:43:36.104Z,79.10
2022-11-15T05:44:36.180Z,74.90
2022-11-15T05:45:36.091Z,69.60
2022-11-15T05:46:36.093Z,69.80
2022-11-15T05:47:36.087Z,71.00
2022-11-15T05:48:36.101Z,88.30
2022-11-15T05:49:36.027Z,82.70
2022-11-15T05:50:36.120Z,67.20
2022-11-15T05:51:35.993Z,69.90
2022-11-15T05:52:36.031Z,68.60
2022-11-15T05:53:36.002Z,66.30
2022-11-15T05:54:36.050Z,76.50
2022-11-15T05:55:35.952Z,70.90
2022-11-15T05:56:35.968Z,70.50
2022-11-15T05:57:35.922Z,85.20
2022-11-15T05:58:35.979Z,68.50
2022-11-15T05:59:35.919Z,76.40
2022-11-15T06:00:56.987Z,73.20
2022-11-15T06:01:35.869Z,78.20
2022-11-15T06:02:36.964Z,67.60
2022-11-15T06:03:35.851Z,65.70
2022-11-15T06:04:36.080Z,69.10
2022-11-15T06:05:36.285Z,70.80
2022-11-15T06:06:38.274Z,66.50
2022-11-15T06:07:36.139Z,67.30
2022-11-15T06:08:36.214Z,66.30
2022-11-15T06:09:36.162Z,65.80
2022-11-15T06:10:36.262Z,63.30
2022-11-15T06:11:35.821Z,58.70
2022-11-15T06:12:35.786Z,73.00
2022-11-15T06:13:35.787Z,62.10
2022-11-15T06:14:36.015Z,63.50
2022-11-15T06:15:35.716Z,64.40
2022-11-15T06:16:35.709Z,59.00
2022-11-15T06:17:35.861Z,66.80
2022-11-15T06:18:37.823Z,70.60
2022-11-15T06:19:35.645Z,65.00
2022-11-15T06:20:36.679Z,55.80
2022-11-15T06:21:36.028Z,66.10
2022-11-15T06:22:35.944Z,62.60
2022-11-15T06:23:36.053Z,65.40
2022-11-15T06:24:35.874Z,58.80
2022-11-15T06:25:35.968Z,62.50
2022-11-15T06:26:35.981Z,67.90
2022-11-15T06:27:35.949Z,61.90
2022-11-15T06:28:35.576Z,71.00
2022-11-15T06:29:35.538Z,69.30
2022-11-15T06:30:36.519Z,75.10
2022-11-15T06:31:35.476Z,64.00
2022-11-15T06:32:35.511Z,70.70
2022-11-15T06:33:35.553Z,61.00
2022-11-15T06:34:35.519Z,57.30
2022-11-15T06:35:35.458Z,57.30
2022-11-15T06:36:35.429Z,66.20
2022-11-15T06:37:35.397Z,60.60
2022-11-15T06:38:36.611Z,61.90
2022-11-15T06:39:35.378Z,55.10
2022-11-15T06:40:35.457Z,58.20
2022-11-15T06:41:35.377Z,59.70
2022-11-15T06:42:35.376Z,62.20
2022-11-15T06:43:35.328Z,62.70
2022-11-15T06:44:35.389Z,62.50
2022-11-15T06:45:35.307Z,63.40
2022-11-15T06:46:37.399Z,61.00
2022-11-15T06:47:35.328Z,63.90
2022-11-15T06:48:35.349Z,56.70
2022-11-15T06:49:35.239Z,60.30
2022-11-15T06:50:35.348Z,56.30
2022-11-15T06:51:35.220Z,63.10
2022-11-15T06:52:35.240Z,57.10
2022-11-15T06:53:35.476Z,59.00
2022-11-15T06:54:35.622Z,54.10
2022-11-15T06:55:35.593Z,63.40
2022-11-15T06:56:35.485Z,59.00
2022-11-15T06:57:35.138Z,65.60
2022-11-15T06:58:35.186Z,53.40
2022-11-15T06:59:39.277Z,58.80
2022-11-15T07:00:36.098Z,57.20
2022-11-15T07:01:35.181Z,63.80
2022-11-15T07:02:35.069Z,53.40
2022-11-15T07:03:35.328Z,55.70
2022-11-15T07:04:35.057Z,63.60
2022-11-15T07:05:35.089Z,54.30
2022-11-15T07:06:35.028Z,59.30
2022-11-15T07:07:35.113Z,55.80
2022-11-15T07:08:35.038Z,61.70
2022-11-15T07:09:35.379Z,66.30
2022-11-15T07:10:34.969Z,60.10
2022-11-15T07:11:35.027Z,60.00
2022-11-15T07:12:34.937Z,64.40
2022-11-15T07:13:35.610Z,68.80
2022-11-15T07:14:34.914Z,62.90
2022-11-15T07:15:35.005Z,54.70
2022-11-15T07:16:34.890Z,54.10
2022-11-15T07:17:34.975Z,60.90
2022-11-15T07:18:34.864Z,63.90
2022-11-15T07:19:34.925Z,58.80
2022-11-15T07:20:34.837Z,58.60
2022-11-15T07:21:34.841Z,58.10
2022-11-15T07:22:34.805Z,57.90
2022-11-15T07:23:35.034Z,64.90
2022-11-15T07:24:34.785Z,56.00
2022-11-15T07:25:34.876Z,58.50
2022-11-15T07:26:34.769Z,56.60
2022-11-15T07:27:34.788Z,57.50
2022-11-15T07:28:34.725Z,55.40
2022-11-15T07:29:34.856Z,53.60
2022-11-15T07:30:34.709Z,60.30
2022-11-15T07:31:34.705Z,58.20
2022-11-15T07:32:34.678Z,55.80
2022-11-15T07:33:35.032Z,57.00
2022-11-15T07:34:34.679Z,53.70
2022-11-15T07:35:34.688Z,53.00
2022-11-15T07:36:34.627Z,61.20
2022-11-15T07:37:34.645Z,59.20
2022-11-15T07:38:39.422Z,56.60
2022-11-15T07:39:35.586Z,64.10
2022-11-15T07:40:34.664Z,54.80
2022-11-15T07:41:34.588Z,53.80
2022-11-15T07:42:34.585Z,55.80
2022-11-15T07:43:34.705Z,58.40
2022-11-15T07:44:34.600Z,55.30
2022-11-15T07:45:34.514Z,63.60
2022-11-15T07:46:34.614Z,60.60
2022-11-15T07:47:34.524Z,55.40
2022-11-15T07:48:44.015Z,60.90
2022-11-15T07:49:35.454Z,57.70
2022-11-15T07:50:34.535Z,65.20
2022-11-15T07:51:34.424Z,59.10
2022-11-15T07:52:34.452Z,64.40
2022-11-15T07:53:34.728Z,58.80
2022-11-15T07:54:34.459Z,61.60
2022-11-15T07:55:34.382Z,60.30
2022-11-15T07:56:34.475Z,59.50
2022-11-15T07:57:34.347Z,57.40
2022-11-15T07:58:34.395Z,57.60
2022-11-15T07:59:34.354Z,56.00
2022-11-15T08:00:34.404Z,56.80
2022-11-15T08:01:34.359Z,55.90
2022-11-15T08:02:34.436Z,56.70
2022-11-15T08:03:34.673Z,62.40
2022-11-15T08:04:34.327Z,60.80
2022-11-15T08:05:34.267Z,58.80
2022-11-15T08:06:34.247Z,68.20
2022-11-15T08:07:34.242Z,53.50
2022-11-15T08:08:34.254Z,62.90
2022-11-15T08:09:34.197Z,55.90
2022-11-15T08:10:40.300Z,60.50
2022-11-15T08:11:35.203Z,59.60
2022-11-15T08:12:34.216Z,61.30
2022-11-15T08:13:34.626Z,54.90
2022-11-15T08:14:34.200Z,52.90
2022-11-15T08:15:34.113Z,58.70
2022-11-15T08:16:34.220Z,60.70
2022-11-15T08:17:34.112Z,57.10
2022-11-15T08:18:36.222Z,54.70
2022-11-15T08:19:34.065Z,59.30
2022-11-15T08:20:34.142Z,63.30
2022-11-15T08:21:34.033Z,59.90
2022-11-15T08:22:34.056Z,58.10
2022-11-15T08:23:34.306Z,57.70
2022-11-15T08:24:34.064Z,53.80
2022-11-15T08:25:33.973Z,57.80
2022-11-15T08:26:35.003Z,53.10
2022-11-15T08:27:34.004Z,64.00
2022-11-15T08:28:33.991Z,56.40
2022-11-15T08:29:33.959Z,58.50
2022-11-15T08:30:35.033Z,54.70
2022-11-15T08:31:33.910Z,58.40
2022-11-15T08:32:33.944Z,56.90
2022-11-15T08:33:34.191Z,52.70
2022-11-15T08:34:33.932Z,57.60
2022-11-15T08:35:33.871Z,54.30
2022-11-15T08:36:43.069Z,56.50
2022-11-15T08:37:34.814Z,53.20
2022-11-15T08:38:34.232Z,46.80
2022-11-15T08:39:33.802Z,58.10
2022-11-15T08:40:33.882Z,53.00
2022-11-15T08:41:33.802Z,55.10
2022-11-15T08:42:33.796Z,50.00
2022-11-15T08:43:33.991Z,53.80
2022-11-15T08:44:33.805Z,54.20
2022-11-15T08:45:33.723Z,55.20
2022-11-15T08:46:33.821Z,60.90
2022-11-15T08:47:33.712Z,61.40
2022-11-15T08:48:33.988Z,60.30
2022-11-15T08:49:33.671Z,59.90
2022-11-15T08:50:33.755Z,58.10
2022-11-15T08:51:33.631Z,59.20
2022-11-15T08:52:33.669Z,62.00
2022-11-15T08:53:33.631Z,55.20
2022-11-15T08:54:33.693Z,62.60
2022-11-15T08:55:33.581Z,57.70
2022-11-15T08:56:34.614Z,61.70
2022-11-15T08:57:33.561Z,60.10
2022-11-15T08:58:33.964Z,58.30
2022-11-15T08:59:33.554Z,56.30
2022-11-15T09:00:33.610Z,56.10
2022-11-15T09:01:33.628Z,61.40
2022-11-15T09:02:33.528Z,59.90
2022-11-15T09:03:33.479Z,64.60
2022-11-15T09:04:36.599Z,57.60
2022-11-15T09:05:33.482Z,68.10
2022-11-15T09:06:33.590Z,63.20
2022-11-15T09:07:33.480Z,70.40
2022-11-15T09:08:47.020Z,61.50
2022-11-15T09:09:34.402Z,65.40
2022-11-15T09:10:33.494Z,64.30
2022-11-15T09:11:33.399Z,60.50
2022-11-15T09:12:33.390Z,61.20
2022-11-15T09:13:33.361Z,67.50
2022-11-15T09:14:33.410Z,67.40
2022-11-15T09:15:33.321Z,67.40
2022-11-15T09:16:33.420Z,67.10
2022-11-15T09:17:33.321Z,58.90
2022-11-15T09:18:33.654Z,56.30
2022-11-15T09:19:33.270Z,65.60
2022-11-15T09:20:33.350Z,62.50
2022-11-15T09:21:33.240Z,64.30
2022-11-15T09:22:33.259Z,63.50
2022-11-15T09:23:33.250Z,69.10
2022-11-15T09:24:33.283Z,70.20
2022-11-15T09:25:33.202Z,66.70
2022-11-15T09:26:33.293Z,69.20
2022-11-15T09:27:33.160Z,73.50
2022-11-15T09:28:33.659Z,67.40
2022-11-15T09:29:33.163Z,63.40
2022-11-15T09:30:33.218Z,58.40
2022-11-15T09:31:33.114Z,62.80
2022-11-15T09:32:37.972Z,68.20
2022-11-15T09:33:34.729Z,65.10
2022-11-15T09:34:35.149Z,55.90
2022-11-15T09:35:33.347Z,62.30
2022-11-15T09:36:40.437Z,67.40
2022-11-15T09:37:42.512Z,58.00
2022-11-15T09:38:38.472Z,61.80
2022-11-15T09:39:38.582Z,58.00
2022-11-15T09:40:44.666Z,59.40
2022-11-15T09:41:37.763Z,69.80
2022-11-15T09:42:34.551Z,67.40
2022-11-15T09:43:42.575Z,65.50
2022-11-15T09:44:40.398Z,69.80
2022-11-15T09:45:44.003Z,64.40
2022-11-15T09:46:34.946Z,63.40
2022-11-15T09:47:40.160Z,58.50
2022-11-15T09:48:40.681Z,67.00
2022-11-15T09:49:41.038Z,63.00
2022-11-15T09:50:35.619Z,65.40
2022-11-15T09:51:46.431Z,63.30
2022-11-15T09:52:39.163Z,60.50
2022-11-15T09:54:53.940Z,69.10
2022-11-15T09:55:35.375Z,60.10
2022-11-15T09:56:35.229Z,62.90
2022-11-15T09:58:03.103Z,69.20
2022-11-15T09:58:35.185Z,62.40
2022-11-15T09:59:47.114Z,69.10
2022-11-15T10:02:11.367Z,66.60
2022-11-15T10:02:50.052Z,61.30
2022-11-15T10:03:51.587Z,60.80
2022-11-15T10:04:55.461Z,64.10
2022-11-15T10:05:50.399Z,66.10
2022-11-15T10:06:50.295Z,62.80
2022-11-15T10:07:50.424Z,61.50
2022-11-15T10:08:49.998Z,62.90
2022-11-15T10:09:49.967Z,66.70
2022-11-15T10:10:50.027Z,72.80
2022-11-15T10:11:50.014Z,65.50
2022-11-15T10:12:49.919Z,63.20
2022-11-15T10:13:49.889Z,69.20
2022-11-15T10:14:54.439Z,69.80
2022-11-15T10:15:49.860Z,63.90
2022-11-15T10:16:49.950Z,70.50
2022-11-15T10:17:49.868Z,65.90
2022-11-15T10:18:49.867Z,60.20
2022-11-15T10:19:49.817Z,65.40
2022-11-15T10:20:49.869Z,71.20
2022-11-15T10:21:49.779Z,55.70
2022-11-15T10:22:49.788Z,65.70
2022-11-15T10:23:49.887Z,67.50
2022-11-15T10:24:49.803Z,66.10
2022-11-15T10:25:49.728Z,58.80
2022-11-15T10:26:50.744Z,59.00
2022-11-15T10:27:49.714Z,67.00
2022-11-15T10:28:49.745Z,61.70
2022-11-15T10:29:49.697Z,63.10
2022-11-15T10:30:50.770Z,62.10
2022-11-15T10:31:49.648Z,69.80
2022-11-15T10:32:49.659Z,62.90
2022-11-15T10:33:49.625Z,64.00
2022-11-15T10:34:49.670Z,69.80
2022-11-15T10:35:49.607Z,65.40
2022-11-15T10:36:50.555Z,64.00
2022-11-15T10:37:49.568Z,66.20
2022-11-15T10:38:49.604Z,71.90
2022-11-15T10:39:49.547Z,59.70
2022-11-15T10:40:49.607Z,59.70
2022-11-15T10:41:49.528Z,68.90
2022-11-15T10:42:49.527Z,65.80
2022-11-15T10:43:49.489Z,60.10
2022-11-15T10:44:49.538Z,70.30
2022-11-15T10:45:49.458Z,59.40
2022-11-15T10:46:49.547Z,65.00
2022-11-15T10:47:49.448Z,64.00
2022-11-15T10:48:49.465Z,65.30
2022-11-15T10:49:49.406Z,74.00
2022-11-15T10:50:49.476Z,66.70
2022-11-15T10:51:49.378Z,65.00
2022-11-15T10:52:49.387Z,65.30
2022-11-15T10:53:49.369Z,61.80
2022-11-15T10:54:49.412Z,65.90
2022-11-15T10:55:49.327Z,63.20
2022-11-15T10:56:49.427Z,66.60
2022-11-15T10:57:49.299Z,69.40
2022-11-15T10:58:49.455Z,71.30
2022-11-15T10:59:49.287Z,67.10
2022-11-15T11:00:49.347Z,72.30
2022-11-15T11:01:49.297Z,62.60
2022-11-15T11:02:49.364Z,65.00
2022-11-15T11:03:49.224Z,69.80
2022-11-15T11:04:49.275Z,66.40
2022-11-15T11:05:49.236Z,170.60
2022-11-15T11:06:49.334Z,180.60
2022-11-15T11:07:49.168Z,130.90
2022-11-15T11:08:49.197Z,104.30
2022-11-15T11:09:49.144Z,77.20
2022-11-15T11:10:51.949Z,76.70
2022-11-15T11:11:49.157Z,86.60
2022-11-15T11:12:51.220Z,66.30
2022-11-15T11:13:49.086Z,68.50
2022-11-15T11:14:49.138Z,70.80
2022-11-15T11:15:49.064Z,70.50
2022-11-15T11:16:49.157Z,66.80
2022-11-15T11:17:49.057Z,62.60
2022-11-15T11:18:49.786Z,68.50
2022-11-15T11:19:49.013Z,61.00
2022-11-15T11:20:49.076Z,65.30
2022-11-15T11:21:48.986Z,66.90
2022-11-15T11:22:48.996Z,71.10
2022-11-15T11:23:48.968Z,72.20
2022-11-15T11:24:49.038Z,74.70
2022-11-15T11:25:49.127Z,70.40
2022-11-15T11:26:55.717Z,65.20
2022-11-15T11:27:49.903Z,67.20
2022-11-15T11:28:48.936Z,74.50
2022-11-15T11:29:49.058Z,74.90
2022-11-15T11:30:48.976Z,74.40
2022-11-15T11:31:49.724Z,67.60
2022-11-15T11:32:53.914Z,77.80
2022-11-15T11:33:49.954Z,66.90
2022-11-15T11:34:49.925Z,64.00
2022-11-15T11:35:48.863Z,72.40
2022-11-15T11:36:49.088Z,69.60
2022-11-15T11:37:48.783Z,74.10
2022-11-15T11:38:48.935Z,78.70
2022-11-15T11:39:48.991Z,72.70
2022-11-15T11:40:48.845Z,70.10
2022-11-15T11:41:48.884Z,75.10
2022-11-15T11:42:48.951Z,81.80
2022-11-15T11:43:48.875Z,77.40
2022-11-15T11:44:48.795Z,79.00
2022-11-15T11:45:48.675Z,70.20
2022-11-15T11:46:48.957Z,80.10
2022-11-15T11:47:48.667Z,74.20
2022-11-15T11:48:48.676Z,77.20
2022-11-15T11:49:48.614Z,74.00
2022-11-15T11:50:48.685Z,80.30
2022-11-15T11:51:48.586Z,76.10
2022-11-15T11:52:48.807Z,76.70
2022-11-15T11:53:48.665Z,75.90
2022-11-15T11:54:48.614Z,80.00
2022-11-15T11:55:48.543Z,73.90
2022-11-15T11:57:10.814Z,80.70
2022-11-15T11:57:48.523Z,82.60
2022-11-15T11:58:48.653Z,81.80
2022-11-15T11:59:48.593Z,82.20
2022-11-15T12:00:48.553Z,75.50
2022-11-15T12:01:48.846Z,79.80
2022-11-15T12:02:49.685Z,80.20
2022-11-15T12:03:48.436Z,68.40
2022-11-15T12:04:49.505Z,74.10
2022-11-15T12:05:48.457Z,79.30
2022-11-15T12:06:48.664Z,73.60
2022-11-15T12:07:48.374Z,70.20
2022-11-15T12:08:48.460Z,75.60
2022-11-15T12:09:48.436Z,75.10
2022-11-15T12:10:49.560Z,80.30
2022-11-15T12:11:48.423Z,70.30
2022-11-15T12:12:49.353Z,78.30
2022-11-15T12:13:48.293Z,65.20
2022-11-15T12:14:48.351Z,73.90
2022-11-15T12:15:48.273Z,74.30
2022-11-15T12:16:48.362Z,77.60
2022-11-15T12:17:48.268Z,72.60
2022-11-15T12:18:48.272Z,70.10
2022-11-15T12:19:48.214Z,76.20
2022-11-15T12:20:48.292Z,82.90
2022-11-15T12:21:48.196Z,89.50
2022-11-15T12:22:48.215Z,76.30
2022-11-15T12:23:48.194Z,83.10
2022-11-15T12:24:48.213Z,70.30
2022-11-15T12:25:48.143Z,67.00
2022-11-15T12:26:48.232Z,77.50
2022-11-15T12:27:48.111Z,69.20
2022-11-15T12:29:05.858Z,66.60
2022-11-15T12:29:49.112Z,73.60
2022-11-15T12:30:49.184Z,76.20
2022-11-15T12:31:48.061Z,70.20
2022-11-15T12:32:48.079Z,76.10
2022-11-15T12:33:48.044Z,76.60
2022-11-15T12:34:48.082Z,76.20
2022-11-15T12:35:48.031Z,81.80
2022-11-15T12:36:49.030Z,74.50
2022-11-15T12:37:47.982Z,77.50
2022-11-15T12:38:48.012Z,77.00
2022-11-15T12:39:47.952Z,81.60
2022-11-15T12:40:48.023Z,79.20
2022-11-15T12:41:47.952Z,80.20
2022-11-15T12:42:47.961Z,81.90
2022-11-15T12:43:47.892Z,79.10
2022-11-15T12:44:49.053Z,80.10
2022-11-15T12:45:47.875Z,75.50
2022-11-15T12:46:48.052Z,76.90
2022-11-15T12:47:47.872Z,81.20
2022-11-15T12:48:47.881Z,80.20
2022-11-15T12:49:47.822Z,81.00
2022-11-15T12:50:48.824Z,77.10
2022-11-15T12:51:47.781Z,74.30
2022-11-15T12:52:47.814Z,79.00
2022-11-15T12:53:47.792Z,83.60
2022-11-15T12:54:47.824Z,84.90
2022-11-15T12:55:47.734Z,79.60
2022-11-15T12:56:47.852Z,86.10
2022-11-15T12:57:47.720Z,85.00
2022-11-15T12:58:47.747Z,83.20